createdAt,value
2018-04-04T00:02:01.258Z,96244.19
2018-04-04T00:04:29.159Z,96243.80
2018-04-04T00:06:56.722Z,96248.48
2018-04-04T00:09:24.287Z,96250.39
2018-04-04T00:11:51.857Z,96251.34
2018-04-04T00:14:19.402Z,96248.66
2018-04-04T00:16:47.235Z,96249.98
2018-04-04T00:19:14.743Z,96256.45
2018-04-04T00:21:42.282Z,96245.71
2018-04-04T00:24:09.850Z,96250.94
2018-04-04T00:26:37.398Z,96248.79
2018-04-04T00:29:05.364Z,96256.05
2018-04-04T00:31:32.920Z,96259.43
2018-04-04T00:34:00.471Z,96258.70
2018-04-04T00:36:28.039Z,96254.19
2018-04-04T00:38:55.590Z,96258.53
2018-04-04T00:41:23.569Z,96270.04
2018-04-04T00:43:51.133Z,96263.21
2018-04-04T00:46:18.682Z,96260.67
2018-04-04T00:48:46.254Z,96262.83
2018-04-04T00:51:13.804Z,96263.64
2018-04-04T00:53:41.414Z,96266.25
2018-04-04T00:56:08.973Z,96270.68
2018-04-04T00:58:36.532Z,96270.25
2018-04-04T01:01:04.111Z,96274.58
2018-04-04T01:03:31.667Z,96291.36
2018-04-04T01:05:59.413Z,96285.94
2018-04-04T01:08:26.971Z,96294.18
2018-04-04T01:10:54.522Z,96289.98
2018-04-04T01:13:22.097Z,96293.81
2018-04-04T01:15:49.754Z,96295.55
2018-04-04T01:18:17.470Z,96286.59
2018-04-04T01:20:45.028Z,96279.95
2018-04-04T01:23:12.590Z,96271.52
2018-04-04T01:25:40.166Z,96273.34
2018-04-04T01:28:07.710Z,96271.66
2018-04-04T01:30:35.370Z,96259.16
2018-04-04T01:33:02.939Z,96260.84
2018-04-04T01:35:30.603Z,96267.55
2018-04-04T01:37:58.175Z,96262.72
2018-04-04T01:40:25.722Z,96255.03
2018-04-04T01:42:53.371Z,96255.70
2018-04-04T01:45:20.918Z,96261.06
2018-04-04T01:47:48.470Z,96265.34
2018-04-04T01:50:16.045Z,96269.59
2018-04-04T01:52:43.606Z,96277.45
2018-04-04T01:55:11.206Z,96282.75
2018-04-04T01:57:38.772Z,96283.72
2018-04-04T02:00:06.326Z,96284.92
2018-04-04T02:02:33.905Z,96278.89
2018-04-04T02:05:01.450Z,96289.70
2018-04-04T02:07:29.046Z,96289.87
2018-04-04T02:09:56.611Z,96291.75
2018-04-04T02:12:24.166Z,96298.96
2018-04-04T02:14:51.748Z,96289.61
2018-04-04T02:17:19.295Z,96287.88
2018-04-04T02:19:47.378Z,96285.87
2018-04-04T02:22:14.936Z,96284.86
2018-04-04T02:24:42.494Z,96285.49
2018-04-04T02:27:10.142Z,96278.16
2018-04-04T02:29:37.818Z,96285.52
2018-04-04T02:32:05.454Z,96284.05
2018-04-04T02:34:33.966Z,96285.14
2018-04-04T02:37:01.519Z,96289.61
2018-04-04T02:39:29.099Z,96290.03
2018-04-04T02:41:56.647Z,96292.05
2018-04-04T02:44:24.405Z,96291.06
2018-04-04T02:46:51.962Z,96293.61
2018-04-04T02:49:19.884Z,96300.80
2018-04-04T02:51:47.462Z,96296.84
2018-04-04T02:54:15.035Z,96298.52
2018-04-04T02:56:42.895Z,96289.95
2018-04-04T02:59:10.483Z,96294.28
2018-04-04T03:01:38.040Z,96286.03
2018-04-04T03:04:05.643Z,96285.31
2018-04-04T03:06:33.196Z,96285.20
2018-04-04T03:09:00.918Z,96276.42
2018-04-04T03:11:28.475Z,96268.70
2018-04-04T03:13:56.033Z,96265.31
2018-04-04T03:16:23.629Z,96263.16
2018-04-04T03:18:51.193Z,96268.63
2018-04-04T03:21:19.225Z,96262.98
2018-04-04T03:23:46.791Z,96262.62
2018-04-04T03:26:14.346Z,96257.87
2018-04-04T03:28:42.227Z,96251.80
2018-04-04T03:31:09.870Z,96246.22
2018-04-04T03:33:37.434Z,96240.22
2018-04-04T03:36:05.019Z,96246.36
2018-04-04T03:38:32.605Z,96246.40
2018-04-04T03:41:00.161Z,96240.72
2018-04-04T03:43:27.878Z,96237.28
2018-04-04T03:45:55.434Z,96242.74
2018-04-04T03:48:23.298Z,96240.28
2018-04-04T03:50:50.882Z,96233.00
2018-04-04T03:53:18.441Z,96229.64
2018-04-04T03:55:46.031Z,96226.27
2018-04-04T03:58:14.373Z,96226.02
2018-04-04T04:00:41.330Z,96223.77
2018-04-04T04:03:08.887Z,96229.98
2018-04-04T04:05:36.474Z,96230.80
2018-04-04T04:08:04.032Z,96225.39
2018-04-04T04:10:31.647Z,96230.16
2018-04-04T04:12:59.406Z,96230.00
2018-04-04T04:15:27.558Z,96228.94
2018-04-04T04:17:55.137Z,96225.83
2018-04-04T04:20:23.370Z,96235.12
2018-04-04T04:22:50.930Z,96236.02
2018-04-04T04:25:18.490Z,96238.86
2018-04-04T04:27:46.067Z,96243.67
2018-04-04T04:30:14.673Z,96238.73
2018-04-04T04:32:42.222Z,96231.30
2018-04-04T04:35:09.816Z,96222.98
2018-04-04T04:37:37.866Z,96212.14
2018-04-04T04:40:05.424Z,96214.52
2018-04-04T04:42:33.014Z,96205.77
2018-04-04T04:45:00.569Z,96207.84
2018-04-04T04:47:28.147Z,96210.27
2018-04-04T04:49:55.755Z,96216.59
2018-04-04T04:52:23.731Z,96216.56
2018-04-04T04:54:51.803Z,96210.03
2018-04-04T04:57:19.364Z,96203.67
2018-04-04T04:59:47.435Z,96201.90
2018-04-04T05:02:15.024Z,96208.47
2018-04-04T05:04:43.578Z,96207.53
2018-04-04T05:07:14.694Z,96206.33
2018-04-04T05:09:43.180Z,96203.70
2018-04-04T05:12:11.071Z,96194.70
2018-04-04T05:14:38.619Z,96198.96
2018-04-04T05:17:06.174Z,96200.73
2018-04-04T05:19:33.776Z,96195.88
2018-04-04T05:22:01.345Z,96199.41
2018-04-04T05:24:29.480Z,96193.09
2018-04-04T05:26:57.958Z,96202.10
2018-04-04T05:29:25.519Z,96198.52
2018-04-04T05:31:53.106Z,96195.44
2018-04-04T05:34:21.558Z,96199.99
2018-04-04T05:36:50.038Z,96190.03
2018-04-04T05:39:17.595Z,96188.30
2018-04-04T05:41:45.156Z,96180.16
2018-04-04T05:44:12.742Z,96189.85
2018-04-04T05:46:40.316Z,96184.33
2018-04-04T05:49:08.041Z,96180.84
2018-04-04T05:51:36.455Z,96185.67
2018-04-04T05:54:04.024Z,96184.88
2018-04-04T05:56:31.629Z,96191.91
2018-04-04T05:58:59.194Z,96192.09
2018-04-04T06:01:27.047Z,96200.38
2018-04-04T06:03:54.609Z,96207.26
2018-04-04T06:06:22.172Z,96200.55
2018-04-04T06:08:49.756Z,96195.16
2018-04-04T06:11:17.404Z,96195.88
2018-04-04T06:13:45.332Z,96193.57
2018-04-04T06:16:12.871Z,96200.83
2018-04-04T06:18:40.492Z,96200.50
2018-04-04T06:21:08.147Z,96208.69
2018-04-04T06:23:35.712Z,96212.59
2018-04-04T06:26:03.483Z,96204.12
2018-04-04T06:28:31.038Z,96202.09
2018-04-04T06:30:58.594Z,96201.12
2018-04-04T06:33:26.191Z,96204.84
2018-04-04T06:35:53.749Z,96199.17
2018-04-04T06:38:21.586Z,96205.67
2018-04-04T06:40:49.131Z,96209.01
2018-04-04T06:43:16.802Z,96198.00
2018-04-04T06:45:44.394Z,96197.30
2018-04-04T06:48:11.934Z,96190.84
2018-04-04T06:50:39.686Z,96185.52
2018-04-04T06:53:07.234Z,96184.23
2018-04-04T06:55:34.874Z,96176.48
2018-04-04T06:58:02.454Z,96172.27
2018-04-04T07:00:30.742Z,96171.23
2018-04-04T07:02:58.866Z,96173.75
2018-04-04T07:05:30.119Z,96174.78
2018-04-04T07:07:57.721Z,96177.20
2018-04-04T07:10:25.696Z,96174.59
2018-04-04T07:12:53.368Z,96179.37
2018-04-04T07:15:21.320Z,96176.99
2018-04-04T07:17:48.981Z,96172.13
2018-04-04T07:20:16.643Z,96180.45
2018-04-04T07:22:44.346Z,96186.10
2018-04-04T07:25:11.924Z,96179.27
2018-04-04T07:27:40.653Z,96180.97
2018-04-04T07:30:08.465Z,96180.72
2018-04-04T07:32:37.046Z,96173.80
2018-04-04T07:35:04.969Z,96170.86
2018-04-04T07:37:32.645Z,96169.73
2018-04-04T07:40:00.396Z,96162.59
2018-04-04T07:42:28.144Z,96152.81
2018-04-04T07:44:55.717Z,96143.20
2018-04-04T07:47:24.103Z,96155.70
2018-04-04T07:49:52.096Z,96159.25
2018-04-04T07:52:20.207Z,96158.78
2018-04-04T07:54:48.004Z,96166.48
2018-04-04T07:57:15.700Z,96164.24
2018-04-04T07:59:43.456Z,96165.63
2018-04-04T08:02:11.018Z,96171.39
2018-04-04T08:04:38.993Z,96161.23
2018-04-04T08:07:06.547Z,96153.28
2018-04-04T08:09:34.154Z,96163.70
2018-04-04T08:12:01.848Z,96162.24
2018-04-04T08:14:29.579Z,96162.25
2018-04-04T08:16:57.432Z,96165.72
2018-04-04T08:19:25.302Z,96162.33
2018-04-04T08:21:53.189Z,96158.70
2018-04-04T08:24:21.155Z,96153.31
2018-04-04T08:26:50.165Z,96153.51
2018-04-04T08:29:18.449Z,96155.13
2018-04-04T08:31:46.309Z,96147.36
2018-04-04T08:34:14.091Z,96144.43
2018-04-04T08:36:41.836Z,96135.96
2018-04-04T08:39:09.809Z,96133.02
2018-04-04T08:41:37.980Z,96131.94
2018-04-04T08:44:05.920Z,96127.28
2018-04-04T08:46:33.920Z,96129.56
2018-04-04T08:49:01.680Z,96135.58
2018-04-04T08:51:29.547Z,96128.08
2018-04-04T08:53:57.665Z,96128.64
2018-04-04T08:56:25.588Z,96126.95
2018-04-04T08:58:53.453Z,96128.39
2018-04-04T09:01:21.423Z,96120.72
2018-04-04T09:03:49.434Z,96118.78
2018-04-04T09:06:17.566Z,96124.61
2018-04-04T09:08:45.535Z,96119.39
2018-04-04T09:11:13.403Z,96121.11
2018-04-04T09:13:41.293Z,96119.27
2018-04-04T09:16:09.254Z,96113.45
2018-04-04T09:18:36.992Z,96119.16
2018-04-04T09:21:04.715Z,96119.86
2018-04-04T09:23:32.435Z,96119.73
2018-04-04T09:26:01.102Z,96112.58
2018-04-04T09:28:28.844Z,96108.51
2018-04-04T09:30:56.872Z,96124.63
2018-04-04T09:33:24.814Z,96111.92
2018-04-04T09:35:52.479Z,96103.98
2018-04-04T09:38:20.969Z,96094.67
2018-04-04T09:40:48.215Z,96085.94
2018-04-04T09:43:17.125Z,96083.04
2018-04-04T09:45:45.459Z,96075.59
2018-04-04T09:48:13.681Z,96059.81
2018-04-04T09:50:41.517Z,96046.38
2018-04-04T09:53:09.166Z,96044.35
2018-04-04T09:55:37.359Z,96040.69
2018-04-04T09:58:05.118Z,96025.75
2018-04-04T10:00:39.078Z,96014.40
2018-04-04T10:03:06.769Z,96016.05
2018-04-04T10:05:34.676Z,96013.83
2018-04-04T10:08:02.627Z,96010.64
2018-04-04T10:10:30.495Z,96009.77
2018-04-04T10:12:58.668Z,96007.81
2018-04-04T10:15:26.743Z,96013.42
2018-04-04T10:17:54.917Z,95996.80
2018-04-04T10:20:23.701Z,96003.62
2018-04-04T10:22:51.581Z,96013.17
2018-04-04T10:25:19.593Z,96008.88
2018-04-04T10:27:47.611Z,96001.59
2018-04-04T10:30:15.462Z,96002.88
2018-04-04T10:32:43.750Z,95994.27
2018-04-04T10:35:11.821Z,95992.81
2018-04-04T10:37:40.094Z,95991.67
2018-04-04T10:40:08.107Z,95992.31
2018-04-04T10:42:35.933Z,95984.17
2018-04-04T10:45:04.004Z,95994.24
2018-04-04T10:47:31.973Z,95984.58
2018-04-04T10:49:59.942Z,95972.17
2018-04-04T10:52:27.912Z,95974.13
2018-04-04T10:54:56.706Z,95958.13
2018-04-04T10:57:24.553Z,95951.80
2018-04-04T10:59:52.517Z,95957.53
2018-04-04T11:02:20.811Z,95947.71
2018-04-04T11:04:48.676Z,95944.47
2018-04-04T11:07:16.543Z,95928.98
2018-04-04T11:09:44.404Z,95924.66
2018-04-04T11:12:12.273Z,95925.13
2018-04-04T11:14:40.218Z,95920.88
2018-04-04T11:17:08.090Z,95918.20
2018-04-04T11:19:35.979Z,95909.67
2018-04-04T11:22:03.743Z,95900.14
2018-04-04T11:24:31.407Z,95898.13
2018-04-04T11:26:59.171Z,95897.22
2018-04-04T11:29:26.778Z,95889.29
2018-04-04T11:31:54.564Z,95890.23
2018-04-04T11:34:22.461Z,95891.31
2018-04-04T11:36:50.102Z,95891.13
2018-04-04T11:39:18.069Z,95885.67
2018-04-04T11:41:45.712Z,95886.20
2018-04-04T11:44:13.263Z,95878.45
2018-04-04T11:46:41.152Z,95868.02
2018-04-04T11:49:08.924Z,95878.17
2018-04-04T11:51:36.550Z,95869.13
2018-04-04T11:54:04.371Z,95870.47
2018-04-04T11:56:32.223Z,95862.09
2018-04-04T11:59:00.104Z,95857.86
2018-04-04T12:01:27.826Z,95854.09
2018-04-04T12:03:55.638Z,95848.95
2018-04-04T12:06:23.202Z,95854.95
2018-04-04T12:08:50.815Z,95847.20
2018-04-04T12:11:19.642Z,95848.88
2018-04-04T12:13:48.226Z,95849.75
2018-04-04T12:16:16.402Z,95843.45
2018-04-04T12:18:44.470Z,95843.48
2018-04-04T12:21:12.680Z,95835.88
2018-04-04T12:23:40.592Z,95843.23
2018-04-04T12:26:08.789Z,95839.53
2018-04-04T12:28:37.022Z,95834.66
2018-04-04T12:31:04.938Z,95840.72
2018-04-04T12:33:32.480Z,95838.32
2018-04-04T12:36:00.120Z,95844.59
2018-04-04T12:38:28.178Z,95841.68
2018-04-04T12:40:56.100Z,95842.98
2018-04-04T12:43:23.654Z,95845.30
2018-04-04T12:45:51.550Z,95853.11
2018-04-04T12:48:20.469Z,95853.86
2018-04-04T12:50:48.578Z,95860.52
2018-04-04T12:53:16.552Z,95859.91
2018-04-04T12:55:44.515Z,95883.92
2018-04-04T12:58:12.662Z,95907.08
2018-04-04T13:00:41.174Z,95911.56
2018-04-04T13:03:10.015Z,95946.27
2018-04-04T13:05:38.247Z,95975.02
2018-04-04T13:08:06.319Z,96005.33
2018-04-04T13:10:34.172Z,96054.36
2018-04-04T13:13:02.030Z,96063.70
2018-04-04T13:15:29.860Z,96075.72
2018-04-04T13:17:57.918Z,96009.02
2018-04-04T13:20:25.786Z,96047.70
2018-04-04T13:22:54.120Z,96090.75
2018-04-04T13:25:22.089Z,96088.87
2018-04-04T13:27:49.955Z,96106.86
2018-04-04T13:30:18.069Z,96102.43
2018-04-04T13:32:46.217Z,96110.97
2018-04-04T13:35:14.373Z,96121.93
2018-04-04T13:37:42.342Z,96138.78
2018-04-04T13:40:11.336Z,96142.96
2018-04-04T13:42:39.058Z,96125.26
2018-04-04T13:45:07.393Z,96148.92
2018-04-04T13:47:35.857Z,96136.88
2018-04-04T13:50:03.544Z,96139.77
2018-04-04T13:52:32.583Z,96143.79
2018-04-04T13:55:00.584Z,96129.11
2018-04-04T13:57:28.620Z,96137.09
2018-04-04T13:59:56.727Z,96147.95
2018-04-04T14:02:24.694Z,96141.66
2018-04-04T14:04:53.276Z,96158.69
2018-04-04T14:07:21.252Z,96145.61
2018-04-04T14:09:49.903Z,96134.70
2018-04-04T14:12:18.005Z,96130.36
2018-04-04T14:14:45.751Z,96127.35
2018-04-04T14:17:13.944Z,96134.80
2018-04-04T14:19:42.624Z,96146.00
2018-04-04T14:22:10.413Z,96152.86
2018-04-04T14:24:38.434Z,96153.35
2018-04-04T14:27:06.327Z,96152.92
2018-04-04T14:29:34.197Z,96148.27
2018-04-04T14:32:02.062Z,96141.67
2018-04-04T14:34:29.929Z,96142.43
2018-04-04T14:36:58.970Z,96146.70
2018-04-04T14:39:26.893Z,96151.61
2018-04-04T14:41:55.423Z,96160.56
2018-04-04T14:44:24.265Z,96171.86
2018-04-04T14:46:52.438Z,96191.92
2018-04-04T14:49:20.918Z,96183.98
2018-04-04T14:51:48.886Z,96185.91
2018-04-04T14:54:16.957Z,96196.33
2018-04-04T14:56:46.034Z,96198.54
2018-04-04T14:59:14.738Z,96210.59
2018-04-04T15:01:42.569Z,96195.13
2018-04-04T15:04:10.780Z,96221.90
2018-04-04T15:06:38.762Z,96227.07
2018-04-04T15:09:06.757Z,96232.08
2018-04-04T15:11:35.709Z,96240.30
2018-04-04T15:14:04.059Z,96261.09
2018-04-04T15:16:32.526Z,96253.42
2018-04-04T15:19:01.609Z,96262.66
2018-04-04T15:21:29.533Z,96271.92
2018-04-04T15:23:57.499Z,96246.05
2018-04-04T15:26:25.572Z,96271.88
2018-04-04T15:28:53.595Z,96271.12
2018-04-04T15:31:21.953Z,96257.70
2018-04-04T15:33:49.962Z,96226.84
2018-04-04T15:36:18.371Z,96216.55
2018-04-04T15:38:47.362Z,96195.95
2018-04-04T15:41:15.330Z,96233.68
2018-04-04T15:43:44.324Z,96238.73
2018-04-04T15:46:12.089Z,96182.25
2018-04-04T15:48:40.059Z,96225.01
2018-04-04T15:51:08.138Z,96216.83
2018-04-04T15:53:36.102Z,96197.48
2018-04-04T15:56:04.067Z,96187.75
2018-04-04T15:58:32.040Z,96195.66
2018-04-04T16:01:00.934Z,96231.55
2018-04-04T16:03:29.513Z,96245.80
2018-04-04T16:05:57.376Z,96253.81
2018-04-04T16:08:25.500Z,96232.01
2018-04-04T16:10:53.326Z,96224.78
2018-04-04T16:13:21.282Z,96190.85
2018-04-04T16:15:49.428Z,96194.33
2018-04-04T16:18:17.329Z,96248.67
2018-04-04T16:20:45.292Z,96256.67
2018-04-04T16:23:13.792Z,96252.99
2018-04-04T16:25:41.713Z,96247.53
2018-04-04T16:28:09.915Z,96243.51
2018-04-04T16:30:37.853Z,96243.69
2018-04-04T16:33:05.853Z,96265.71
2018-04-04T16:35:34.181Z,96257.98
2018-04-04T16:38:02.203Z,96254.69
2018-04-04T16:40:30.142Z,96242.28
2018-04-04T16:42:58.448Z,96244.72
2018-04-04T16:45:26.518Z,96246.86
2018-04-04T16:47:54.588Z,96242.55
2018-04-04T16:50:22.556Z,96237.22
2018-04-04T16:52:50.834Z,96244.98
2018-04-04T16:55:19.622Z,96250.66
2018-04-04T16:57:48.718Z,96243.63
2018-04-04T17:00:17.061Z,96235.89
2018-04-04T17:02:45.474Z,96233.14
2018-04-04T17:05:13.762Z,96242.52
2018-04-04T17:07:41.822Z,96244.56
2018-04-04T17:10:10.138Z,96244.33
2018-04-04T17:12:38.990Z,96247.61
2018-04-04T17:15:06.958Z,96238.60
2018-04-04T17:17:35.068Z,96244.79
2018-04-04T17:20:04.081Z,96250.27
2018-04-04T17:22:32.093Z,96253.12
2018-04-04T17:25:00.267Z,96253.77
2018-04-04T17:27:28.445Z,96263.42
2018-04-04T17:29:56.980Z,96268.55
2018-04-04T17:32:24.993Z,96266.44
2018-04-04T17:34:52.963Z,96253.95
2018-04-04T17:37:21.034Z,96264.77
2018-04-04T17:39:49.292Z,96268.32
2018-04-04T17:42:17.732Z,96261.95
2018-04-04T17:44:45.760Z,96262.80
2018-04-04T17:47:13.728Z,96260.31
2018-04-04T17:49:41.902Z,96254.67
2018-04-04T17:52:10.677Z,96255.87
2018-04-04T17:54:38.659Z,96262.17
2018-04-04T17:57:06.787Z,96260.04
2018-04-04T17:59:34.677Z,96256.83
2018-04-04T18:02:03.488Z,96256.55
2018-04-04T18:04:32.066Z,96253.93
2018-04-04T18:07:00.040Z,96261.14
2018-04-04T18:09:28.111Z,96255.39
2018-04-04T18:11:56.135Z,96238.08
2018-04-04T18:14:24.049Z,96223.27
2018-04-04T18:16:52.120Z,96239.50
2018-04-04T18:19:20.070Z,96255.61
2018-04-04T18:21:48.499Z,96251.64
2018-04-04T18:24:16.745Z,96260.99
2018-04-04T18:26:44.934Z,96257.52
2018-04-04T18:29:14.370Z,96258.16
2018-04-04T18:31:42.291Z,96254.98
2018-04-04T18:34:10.260Z,96264.88
2018-04-04T18:36:38.639Z,96256.81
2018-04-04T18:39:06.710Z,96264.78
2018-04-04T18:41:37.772Z,96259.48
2018-04-04T18:44:05.931Z,96268.95
2018-04-04T18:46:34.000Z,96267.09
2018-04-04T18:49:02.272Z,96270.58
2018-04-04T18:51:30.307Z,96277.89
2018-04-04T18:53:58.270Z,96272.77
2018-04-04T18:56:26.486Z,96279.11
2018-04-04T18:58:54.658Z,96274.55
2018-04-04T19:01:24.985Z,96265.11
2018-04-04T19:03:52.955Z,96276.74
2018-04-04T19:06:21.330Z,96287.28
2018-04-04T19:08:49.271Z,96274.76
2018-04-04T19:11:17.638Z,96264.59
2018-04-04T19:13:45.750Z,96264.45
2018-04-04T19:16:13.718Z,96258.05
2018-04-04T19:18:41.688Z,96273.67
2018-04-04T19:21:09.663Z,96275.89
2018-04-04T19:23:37.842Z,96281.88
2018-04-04T19:26:07.540Z,96276.28
2018-04-04T19:28:35.816Z,96270.88
2018-04-04T19:31:03.787Z,96283.53
2018-04-04T19:33:32.441Z,96283.27
2018-04-04T19:36:00.646Z,96278.21
2018-04-04T19:38:28.613Z,96291.97
2018-04-04T19:40:56.583Z,96300.19
2018-04-04T19:43:24.757Z,96294.05
2018-04-04T19:45:52.724Z,96300.45
2018-04-04T19:48:20.900Z,96299.16
2018-04-04T19:50:48.868Z,96300.53
2018-04-04T19:53:17.352Z,96320.67
2018-04-04T19:55:45.317Z,96314.41
2018-04-04T19:58:13.287Z,96302.25
2018-04-04T20:00:41.665Z,96304.75
2018-04-04T20:03:09.614Z,96296.41
2018-04-04T20:05:37.501Z,96316.24
2018-04-04T20:08:09.667Z,96311.37
2018-04-04T20:10:38.408Z,96313.72
2018-04-04T20:13:06.505Z,96314.33
2018-04-04T20:15:35.173Z,96321.09
2018-04-04T20:18:03.489Z,96318.64
2018-04-04T20:20:31.766Z,96307.62
2018-04-04T20:22:59.855Z,96308.84
2018-04-04T20:25:27.913Z,96310.58
2018-04-04T20:27:56.286Z,96301.59
2018-04-04T20:30:24.315Z,96315.63
2018-04-04T20:32:52.640Z,96310.58
2018-04-04T20:35:20.603Z,96323.45
2018-04-04T20:37:48.899Z,96321.17
2018-04-04T20:40:16.914Z,96331.00
2018-04-04T20:42:45.023Z,96329.06
2018-04-04T20:45:13.073Z,96337.91
2018-04-04T20:47:41.062Z,96345.93
2018-04-04T20:50:09.056Z,96352.40
2018-04-04T20:52:37.174Z,96355.66
2018-04-04T20:55:05.481Z,96363.97
2018-04-04T20:57:33.756Z,96361.84
2018-04-04T21:00:01.624Z,96366.13
2018-04-04T21:02:30.137Z,96360.66
2018-04-04T21:04:58.995Z,96366.96
2018-04-04T21:07:26.963Z,96358.86
2018-04-04T21:09:55.662Z,96365.56
2018-04-04T21:12:23.434Z,96370.78
2018-04-04T21:14:51.488Z,96370.39
2018-04-04T21:17:19.454Z,96369.80
2018-04-04T21:19:47.734Z,96369.48
2018-04-04T21:22:16.109Z,96359.53
2018-04-04T21:24:44.693Z,96351.91
2018-04-04T21:27:12.866Z,96348.25
2018-04-04T21:29:41.404Z,96341.66
2018-04-04T21:32:09.318Z,96329.12
2018-04-04T21:34:37.188Z,96329.38
2018-04-04T21:37:05.152Z,96320.20
2018-04-04T21:39:33.529Z,96321.78
2018-04-04T21:42:01.273Z,96316.70
2018-04-04T21:44:29.058Z,96315.30
2018-04-04T21:46:56.925Z,96314.47
2018-04-04T21:49:24.688Z,96301.14
2018-04-04T21:51:52.557Z,96292.38
2018-04-04T21:54:20.417Z,96292.69
2018-04-04T21:56:48.191Z,96304.14
2018-04-04T21:59:15.926Z,96303.14
2018-04-04T22:01:43.549Z,96298.41
2018-04-04T22:04:11.480Z,96320.86
2018-04-04T22:06:39.507Z,96316.16
2018-04-04T22:09:07.106Z,96318.77
2018-04-04T22:17:33.249Z,96337.89
2018-04-04T22:20:00.849Z,96342.72
2018-04-04T22:22:28.409Z,96333.54
2018-04-04T22:24:56.157Z,96341.50
2018-04-04T22:27:23.708Z,96337.95
2018-04-04T22:29:51.283Z,96353.35
2018-04-04T22:32:18.849Z,96349.10
2018-04-04T22:34:46.437Z,96355.27
2018-04-04T22:37:14.014Z,96349.20
2018-04-04T22:39:41.721Z,96362.30
2018-04-04T22:42:09.714Z,96370.17
2018-04-04T22:44:37.426Z,96372.56
2018-04-04T22:47:05.089Z,96381.98
2018-04-04T22:49:32.702Z,96376.28
2018-04-04T22:52:00.242Z,96378.53
2018-04-04T22:54:27.994Z,96383.08
2018-04-04T22:56:55.542Z,96380.54
2018-04-04T22:59:23.100Z,96382.72
2018-04-04T23:01:50.681Z,96397.12
2018-04-04T23:04:18.232Z,96390.99
2018-04-04T23:06:46.222Z,96405.70
2018-04-04T23:09:13.773Z,96400.55
2018-04-04T23:20:13.391Z,96409.68
2018-04-04T23:22:40.939Z,96410.11
2018-04-04T23:25:09.061Z,96416.58
2018-04-04T23:27:36.695Z,96418.55
2018-04-04T23:30:04.246Z,96421.38
2018-04-04T23:32:31.826Z,96420.86
2018-04-04T23:34:59.379Z,96422.22
2018-04-04T23:37:26.963Z,96429.50
2018-04-04T23:39:54.508Z,96430.61
2018-04-04T23:42:22.055Z,96429.38
2018-04-04T23:44:49.637Z,96429.10
2018-04-04T23:47:17.209Z,96432.99
2018-04-04T23:49:44.958Z,96436.20
2018-04-04T23:52:12.508Z,96448.63
2018-04-04T23:54:40.052Z,96445.20
2018-04-04T23:57:07.621Z,96453.05
2018-04-04T23:59:35.172Z,96440.31
